Time;durP1;ratioP1;P1;durP2;ratioP2;P2;SDS_P1;SDS_P2;PMS_P1;PMS_P2;Temp;Humidity;BMP_temperature;BMP_pressure;BME280_temperature;BME280_humidity;BME280_pressure;Samples;Min_cycle;Max_cycle;Signal;HPM_P1;HPM_P2
2022/09/18 00:02:26;;;;;;;2.40;0.50;;;6.90;99.90;6.90;96190.00;;;;5111508;27;20395;-68
2022/09/18 00:05:16;;;;;;;0.93;0.70;;;6.60;99.90;7.30;96191.00;;;;5111198;27;20412;-68
2022/09/18 00:08:06;;;;;;;0.60;0.60;;;6.40;99.90;7.20;96189.00;;;;5109639;27;20419;-67
2022/09/18 00:10:55;;;;;;;1.40;0.50;;;7.50;99.90;6.80;96186.00;;;;5107163;27;20470;-67
2022/09/18 00:13:44;;;;;;;2.20;0.98;;;6.90;99.90;7.20;96192.00;;;;5109952;27;20381;-68
2022/09/18 00:16:33;;;;;;;1.77;0.75;;;7.00;99.90;7.20;96194.00;;;;5100381;27;20463;-68
2022/09/18 00:19:22;;;;;;;1.52;0.60;;;7.20;99.90;6.80;96208.00;;;;5100888;27;20404;-68
2022/09/18 00:22:12;;;;;;;0.80;0.50;;;6.90;99.90;7.10;96197.00;;;;5114719;27;20884;-68
2022/09/18 00:25:01;;;;;;;0.80;0.60;;;6.60;99.90;6.90;96202.00;;;;5110869;27;20782;-68
2022/09/18 00:27:49;;;;;;;0.88;0.50;;;6.80;99.90;7.10;96194.00;;;;5107247;27;20394;-68
2022/09/18 00:30:38;;;;;;;1.00;0.60;;;6.80;99.90;7.00;96198.00;;;;5108147;27;20491;-67
2022/09/18 00:33:27;;;;;;;0.57;0.57;;;6.30;99.90;7.30;96186.00;;;;5107202;27;20228;-68
2022/09/18 00:36:17;;;;;;;4.43;0.87;;;6.40;99.90;6.80;96194.00;;;;5111108;27;20594;-68
2022/09/18 00:39:08;;;;;;;1.23;0.75;;;6.20;99.90;7.00;96182.00;;;;5099755;27;20664;-67
2022/09/18 00:41:57;;;;;;;0.50;0.50;;;6.20;99.90;6.40;96179.00;;;;5111376;27;20606;-68
2022/09/18 00:44:49;;;;;;;0.30;0.30;;;6.20;99.90;6.90;96179.00;;;;5100546;27;20191;-68
2022/09/18 00:47:45;;;;;;;0.50;0.50;;;6.10;99.90;7.10;96175.00;;;;5109211;27;20225;-68
2022/09/18 00:50:33;;;;;;;;;;;6.10;99.90;7.00;96168.00;;;;5121147;27;20067;-68
2022/09/18 00:53:22;;;;;;;;;;;6.10;99.90;6.70;96167.00;;;;5108913;27;19935;-68
2022/09/18 00:56:13;;;;;;;;;;;6.10;99.90;6.50;96174.00;;;;5109355;28;20010;-68
2022/09/18 00:59:01;;;;;;;;;;;5.90;99.90;6.60;96180.00;;;;5111230;27;19963;-68
2022/09/18 01:01:50;;;;;;;0.50;0.50;;;5.80;99.90;6.30;96174.00;;;;5107776;27;20204;-69
2022/09/18 01:04:40;;;;;;;0.67;0.60;;;5.80;99.90;6.60;96183.00;;;;5108652;28;20239;-68
2022/09/18 01:07:56;;;;;;;0.47;0.47;;;5.80;99.90;6.60;96196.00;;;;5102810;28;20194;-68
2022/09/18 01:11:04;;;;;;;2.20;0.97;;;5.80;99.90;6.20;96199.00;;;;5102459;28;20254;-68
2022/09/18 01:14:09;;;;;;;0.50;0.50;;;5.70;99.90;6.30;96186.00;;;;5105874;28;20232;-68
2022/09/18 01:17:06;;;;;;;0.67;0.67;;;5.60;99.90;6.50;96199.00;;;;5112704;28;20744;-68
2022/09/18 01:20:29;;;;;;;1.27;0.80;;;5.60;99.90;6.70;96201.00;;;;5123417;28;20259;-68
2022/09/18 01:23:53;;;;;;;0.70;0.70;;;5.70;99.90;6.40;96204.00;;;;5107318;28;20243;-68
2022/09/18 01:26:59;;;;;;;0.60;0.60;;;5.70;99.90;6.50;96209.00;;;;5125426;28;20258;-67
2022/09/18 01:29:56;;;;;;;0.50;0.50;;;5.60;99.90;6.10;96209.00;;;;5114460;28;20198;-68
2022/09/18 01:32:52;;;;;;;1.97;0.80;;;5.60;99.90;6.00;96209.00;;;;5124964;28;20258;-67
2022/09/18 01:35:47;;;;;;;0.87;0.70;;;5.50;99.90;6.00;96236.00;;;;5111978;28;20229;-67
2022/09/18 01:38:40;;;;;;;6.30;1.10;;;5.50;99.90;6.30;96240.00;;;;5124315;28;20265;-68
2022/09/18 01:41:30;;;;;;;0.67;0.67;;;5.50;99.90;6.00;96234.00;;;;5121992;28;20278;-67
2022/09/18 01:44:23;;;;;;;0.50;0.50;;;5.50;99.90;5.60;96228.00;;;;5115330;27;20236;-67
2022/09/18 01:47:16;;;;;;;0.50;0.50;;;5.40;99.90;6.10;96252.00;;;;5110296;27;20206;-68
2022/09/18 01:50:07;;;;;;;0.83;0.70;;;5.40;99.90;6.10;96252.00;;;;5114110;27;20255;-68
2022/09/18 01:53:13;;;;;;;0.70;0.70;;;5.40;99.90;5.90;96254.00;;;;5093969;22;20294;-72
2022/09/18 01:56:10;;;;;;;0.93;0.57;;;5.40;99.90;5.80;96255.00;;;;5060386;28;20199;-72
2022/09/18 01:59:04;;;;;;;1.07;0.50;;;5.40;99.90;6.00;96270.00;;;;5070475;28;20647;-72
2022/09/18 02:01:55;;;;;;;1.20;1.00;;;5.20;99.90;5.80;96249.00;;;;5058304;28;20266;-72
2022/09/18 02:04:51;;;;;;;3.03;0.80;;;5.10;99.90;5.90;96260.00;;;;5048017;28;20103;-72
2022/09/18 02:07:47;;;;;;;4.40;0.80;;;5.20;99.90;6.00;96273.00;;;;5044244;28;20274;-72
2022/09/18 02:10:43;;;;;;;1.07;0.60;;;5.20;99.90;6.00;96267.00;;;;5051489;28;20267;-72
2022/09/18 02:13:38;;;;;;;0.40;0.40;;;5.20;99.90;6.00;96259.00;;;;5055522;28;20071;-72
2022/09/18 02:16:32;;;;;;;2.73;0.80;;;5.20;99.90;6.00;96248.00;;;;5053777;28;20694;-72
2022/09/18 02:19:29;;;;;;;0.60;0.60;;;5.20;99.90;5.70;96256.00;;;;5052361;28;20200;-72
2022/09/18 02:22:23;;;;;;;0.50;0.50;;;5.10;99.90;6.00;96253.00;;;;5042953;28;20785;-72
2022/09/18 02:25:18;;;;;;;0.40;0.40;;;5.10;99.90;6.10;96257.00;;;;5052068;28;20121;-72
2022/09/18 02:28:09;;;;;;;1.00;0.85;;;5.20;99.90;6.00;96261.00;;;;5052496;28;20618;-72
2022/09/18 02:30:59;;;;;;;0.70;0.70;;;5.00;99.90;6.10;96260.00;;;;5053302;28;20221;-72
2022/09/18 02:33:49;;;;;;;0.50;0.50;;;5.20;99.90;6.10;96262.00;;;;5055189;28;20201;-72
2022/09/18 02:36:59;;;;;;;2.93;0.60;;;5.20;99.90;6.10;96265.00;;;;5049001;28;20095;-72
2022/09/18 02:40:05;;;;;;;0.60;0.60;;;5.20;99.90;6.10;96266.00;;;;5050031;28;20217;-72
2022/09/18 02:43:19;;;;;;;3.50;0.60;;;5.20;99.90;6.10;96265.00;;;;5052962;28;20212;-72
2022/09/18 02:46:21;;;;;;;1.03;0.53;;;5.20;99.90;5.80;96269.00;;;;5064819;28;20253;-72
2022/09/18 02:49:15;;;;;;;0.60;0.60;;;5.20;99.90;5.80;96272.00;;;;5052083;28;20195;-71
2022/09/18 02:52:06;;;;;;;;;;;5.10;99.90;6.00;96268.00;;;;5055237;28;20199;-71
2022/09/18 02:54:59;;;;;;;;;;;5.10;99.90;6.10;96267.00;;;;5053169;28;19921;-71
2022/09/18 02:57:51;;;;;;;;;;;5.10;99.90;5.80;96265.00;;;;5053492;28;19936;-71
2022/09/18 03:00:43;;;;;;;;;;;5.10;99.90;6.00;96275.00;;;;5063078;28;19928;-71
2022/09/18 03:03:32;;;;;;;;;;;5.10;99.90;5.80;96279.00;;;;5045097;28;20328;-71
2022/09/18 03:06:21;;;;;;;;;;;5.10;99.90;5.80;96288.00;;;;5053500;28;19920;-71
2022/09/18 03:09:09;;;;;;;;;;;5.10;99.90;5.90;96298.00;;;;5052649;28;20058;-71
2022/09/18 03:12:00;;;;;;;;;;;5.10;99.90;6.00;96291.00;;;;5049472;28;19959;-72
2022/09/18 03:14:49;;;;;;;;;;;5.00;99.90;6.00;96296.00;;;;5053427;28;20059;-72
2022/09/18 03:17:37;;;;;;;;;;;5.10;99.90;6.00;96292.00;;;;5050507;28;19928;-72
2022/09/18 03:20:26;;;;;;;;;;;5.10;99.90;5.30;96293.00;;;;5052706;28;19928;-72
2022/09/18 03:23:14;;;;;;;;;;;5.00;99.90;5.70;96279.00;;;;5066703;28;19920;-72
2022/09/18 03:26:03;;;;;;;;;;;4.90;99.90;5.60;96286.00;;;;5051056;28;19925;-72
2022/09/18 03:28:53;;;;;;;;;;;5.00;99.90;5.60;96287.00;;;;5043521;28;19979;-72
2022/09/18 03:31:41;;;;;;;;;;;4.90;99.90;5.30;96283.00;;;;5034748;28;20393;-72
2022/09/18 03:34:30;;;;;;;;;;;4.80;99.90;5.60;96291.00;;;;5052223;28;20025;-72
2022/09/18 03:37:18;;;;;;;;;;;4.80;99.90;5.40;96279.00;;;;5053357;28;20010;-73
2022/09/18 03:40:08;;;;;;;;;;;4.80;99.90;5.90;96302.00;;;;5055106;28;19975;-73
2022/09/18 03:42:57;;;;;;;0.60;0.60;;;4.90;99.90;5.60;96302.00;;;;5050318;28;20429;-72
2022/09/18 03:45:47;;;;;;;0.50;0.50;;;4.90;99.90;5.10;96297.00;;;;5052480;28;20432;-74
2022/09/18 03:48:36;;;;;;;0.57;0.57;;;4.80;99.90;5.20;96294.00;;;;5048347;28;20202;-73
2022/09/18 03:51:25;;;;;;;1.13;0.73;;;4.80;99.90;5.20;96290.00;;;;5052024;28;20288;-72
2022/09/18 03:54:14;;;;;;;1.07;0.60;;;4.70;99.90;4.90;96296.00;;;;5067622;28;20245;-71
2022/09/18 03:57:03;;;;;;;1.07;0.70;;;4.70;99.90;5.10;96304.00;;;;5066172;28;20241;-73
2022/09/18 03:59:52;;;;;;;0.40;0.40;;;4.60;99.90;5.30;96300.00;;;;5066123;28;20200;-72
2022/09/18 04:02:42;;;;;;;0.60;0.60;;;4.60;99.90;5.80;96306.00;;;;5061015;28;20223;-72
2022/09/18 04:05:31;;;;;;;2.07;1.30;;;4.80;99.90;5.40;96281.00;;;;5067823;28;20711;-73
2022/09/18 04:08:19;;;;;;;0.47;0.47;;;4.90;99.90;5.70;96301.00;;;;5053274;28;20679;-71
2022/09/18 04:11:08;;;;;;;0.90;0.60;;;4.80;99.90;6.00;96313.00;;;;5047152;28;20237;-71
2022/09/18 04:13:57;;;;;;;1.00;0.63;;;5.00;99.90;6.10;96306.00;;;;5049245;28;20770;-71
2022/09/18 04:16:45;;;;;;;0.70;0.50;;;5.00;99.90;6.30;96317.00;;;;5049676;28;20235;-71
2022/09/18 04:19:35;;;;;;;0.40;0.40;;;5.20;99.90;6.30;96318.00;;;;5050209;28;20610;-71
2022/09/18 04:22:24;;;;;;;0.50;0.50;;;5.20;99.90;6.20;96323.00;;;;5048763;28;20719;-71
2022/09/18 04:25:13;;;;;;;0.50;0.50;;;5.30;99.90;6.10;96327.00;;;;5040014;28;20250;-72
2022/09/18 04:28:02;;;;;;;0.40;0.40;;;5.30;99.90;6.40;96319.00;;;;5049327;28;20197;-72
2022/09/18 04:30:50;;;;;;;0.30;0.30;;;5.50;99.90;6.60;96316.00;;;;5050330;28;20037;-72
2022/09/18 04:33:39;;;;;;;0.40;0.40;;;5.50;99.90;6.30;96335.00;;;;5023420;28;20473;-72
2022/09/18 04:36:29;;;;;;;0.40;0.30;;;5.50;99.90;5.90;96348.00;;;;5030335;28;20816;-71
2022/09/18 04:39:18;;;;;;;2.87;0.40;;;5.50;99.90;6.20;96332.00;;;;5043013;28;20279;-72
2022/09/18 04:42:07;;;;;;;0.73;0.73;;;5.40;99.90;6.50;96323.00;;;;5045974;28;20705;-72
2022/09/18 04:44:56;;;;;;;0.73;0.50;;;5.50;99.90;6.20;96324.00;;;;5040834;28;20678;-74
2022/09/18 04:47:45;;;;;;;0.57;0.57;;;5.50;99.90;6.50;96317.00;;;;5035131;28;20690;-73
2022/09/18 04:50:34;;;;;;;0.33;0.33;;;5.60;99.90;6.60;96328.00;;;;5043173;28;20208;-73
2022/09/18 04:53:24;;;;;;;0.67;0.67;;;5.60;99.90;6.60;96328.00;;;;5045730;28;20204;-73
2022/09/18 04:56:13;;;;;;;0.50;0.50;;;5.60;99.90;6.60;96317.00;;;;5048805;28;20209;-73
2022/09/18 04:59:01;;;;;;;;;;;5.60;99.90;6.70;96323.00;;;;5030185;28;20243;-73
2022/09/18 05:01:50;;;;;;;;;;;5.70;99.90;6.60;96320.00;;;;5047552;28;19928;-73
2022/09/18 05:04:38;;;;;;;;;;;5.70;99.90;6.20;96332.00;;;;5049890;28;19925;-73
2022/09/18 05:07:27;;;;;;;;;;;5.60;99.90;6.60;96340.00;;;;5047801;28;20281;-72
2022/09/18 05:10:17;;;;;;;;;;;5.70;99.90;6.30;96342.00;;;;5048788;28;19968;-72
2022/09/18 05:13:06;;;;;;;;;;;5.50;99.90;6.50;96353.00;;;;5047927;28;19925;-72
2022/09/18 05:15:54;;;;;;;;;;;5.80;99.90;6.70;96345.00;;;;5048959;28;19990;-72
2022/09/18 05:18:43;;;;;;;;;;;5.70;99.90;6.50;96357.00;;;;5042525;28;19957;-72
2022/09/18 05:21:31;;;;;;;;;;;5.60;99.90;6.30;96365.00;;;;5056837;28;20380;-72
2022/09/18 05:24:20;;;;;;;1.73;0.60;;;5.70;99.90;6.50;96368.00;;;;5052171;28;19925;-72
2022/09/18 05:27:10;;;;;;;;;;;5.40;99.90;6.60;96363.00;;;;5038734;28;20081;-72
2022/09/18 05:29:58;;;;;;;;;;;5.60;99.90;6.20;96366.00;;;;5046721;28;19960;-73
2022/09/18 05:32:53;;;;;;;;;;;5.60;99.90;6.60;96361.00;;;;5048375;28;19966;-73
2022/09/18 05:35:45;;;;;;;;;;;5.60;99.90;6.80;96349.00;;;;5043969;28;19924;-73
2022/09/18 05:38:34;;;;;;;;;;;5.80;99.90;6.70;96354.00;;;;5054632;28;19956;-72
2022/09/18 05:41:22;;;;;;;;;;;5.80;99.90;6.00;96365.00;;;;5050616;28;20033;-74
2022/09/18 05:44:12;;;;;;;;;;;5.70;99.90;6.30;96351.00;;;;5049730;28;20078;-73
2022/09/18 05:47:00;;;;;;;;;;;5.70;99.90;6.90;96349.00;;;;5037278;28;20474;-73
2022/09/18 05:49:49;;;;;;;;;;;5.80;99.90;6.80;96344.00;;;;5052330;28;19921;-73
2022/09/18 05:52:37;;;;;;;;;;;5.80;99.90;7.30;96365.00;;;;5038534;28;20462;-73
2022/09/18 05:55:27;;;;;;;3.10;0.60;;;6.10;99.90;7.60;96354.00;;;;5037083;28;19925;-70
2022/09/18 05:58:20;;;;;;;0.50;0.50;;;6.20;99.90;7.80;96353.00;;;;5062727;28;20200;-73
2022/09/18 06:01:13;;;;;;;0.43;0.43;;;6.60;99.90;7.50;96356.00;;;;5050868;28;20201;-73
2022/09/18 06:04:02;;;;;;;0.60;0.60;;;6.50;99.90;7.50;96354.00;;;;5032423;28;20190;-73
2022/09/18 06:06:51;;;;;;;0.37;0.37;;;6.60;99.90;7.80;96365.00;;;;5035929;28;20276;-73
2022/09/18 06:09:39;;;;;;;3.37;2.30;;;6.80;99.90;7.90;96377.00;;;;5051935;28;20199;-72
2022/09/18 06:12:28;;;;;;;1.50;1.00;;;6.80;99.90;7.90;96375.00;;;;5051039;28;20212;-72
2022/09/18 06:15:17;;;;;;;1.73;1.00;;;6.80;99.90;7.60;96368.00;;;;5047218;28;20263;-72
2022/09/18 06:18:08;;;;;;;;;;;7.00;99.90;7.60;96357.00;;;;5049829;28;20075;-72
2022/09/18 06:20:57;;;;;;;;;;;6.90;99.90;8.20;96360.00;;;;5050279;28;19925;-72
2022/09/18 06:23:46;;;;;;;;;;;6.90;99.90;8.50;96372.00;;;;5050857;28;20450;-73
2022/09/18 06:26:34;;;;;;;;;;;7.10;99.90;8.30;96368.00;;;;5049184;28;19927;-72
2022/09/18 06:29:23;;;;;;;;;;;7.20;99.90;8.30;96376.00;;;;5048523;28;20445;-72
2022/09/18 06:32:11;;;;;;;;;;;7.30;99.90;7.40;96372.00;;;;5048535;28;20018;-73
2022/09/18 06:35:01;;;;;;;;;;;7.80;99.90;7.80;96373.00;;;;5050637;28;19975;-73
2022/09/18 06:37:50;;;;;;;;;;;7.00;99.90;8.20;96366.00;;;;5050312;28;19975;-73
2022/09/18 06:40:38;;;;;;;;;;;7.10;99.90;8.60;96372.00;;;;5045812;28;19995;-73
2022/09/18 06:43:27;;;;;;;;;;;7.20;99.90;8.40;96370.00;;;;5047761;28;19921;-72
2022/09/18 06:46:15;;;;;;;;;;;7.30;99.90;8.70;96366.00;;;;5048237;28;20419;-73
2022/09/18 06:49:04;;;;;;;;;;;7.40;99.90;8.80;96363.00;;;;5047473;28;19932;-73
2022/09/18 06:51:54;;;;;;;;;;;7.40;99.90;8.90;96349.00;;;;5042421;28;20338;-73
2022/09/18 06:54:42;;;;;;;;;;;7.60;99.90;9.50;96362.00;;;;5048667;28;19924;-73
2022/09/18 06:57:31;;;;;;;;;;;7.80;99.90;9.90;96371.00;;;;5047366;28;19968;-73
2022/09/18 07:00:20;;;;;;;0.70;0.60;;;8.10;99.90;9.80;96370.00;;;;5050673;28;19924;-73
2022/09/18 07:03:09;;;;;;;;;;;8.30;99.90;10.10;96379.00;;;;5043371;28;20134;-72
2022/09/18 07:05:57;;;;;;;;;;;8.60;99.90;10.60;96383.00;;;;5048604;28;19924;-72
2022/09/18 07:08:47;;;;;;;;;;;8.80;99.90;10.90;96369.00;;;;5062761;28;19968;-73
2022/09/18 07:11:36;;;;;;;1.75;1.40;;;9.10;99.90;11.30;96389.00;;;;5035285;28;19944;-73
2022/09/18 07:14:24;;;;;;;2.95;1.50;;;9.40;99.90;11.50;96381.00;;;;5042574;28;20227;-72
2022/09/18 07:17:13;;;;;;;1.50;1.30;;;9.60;99.90;11.70;96372.00;;;;5045158;28;20216;-73
2022/09/18 07:20:06;;;;;;;1.27;1.00;;;9.90;99.90;11.80;96372.00;;;;5042457;28;20185;-73
2022/09/18 07:22:58;;;;;;;0.60;0.60;;;10.10;99.90;11.90;96381.00;;;;5049000;28;20301;-73
2022/09/18 07:25:48;;;;;;;1.40;0.85;;;10.30;99.90;12.30;96377.00;;;;5037164;28;20871;-73
2022/09/18 07:28:37;;;;;;;1.37;0.80;;;10.60;99.90;12.70;96387.00;;;;5054279;28;20207;-72
2022/09/18 07:31:26;;;;;;;0.80;0.65;;;10.80;99.90;12.90;96378.00;;;;5039659;28;20397;-73
2022/09/18 07:34:15;;;;;;;1.40;0.70;;;11.00;99.90;12.80;96389.00;;;;5041978;28;20566;-73
2022/09/18 07:37:03;;;;;;;1.00;0.90;;;11.20;99.90;13.10;96392.00;;;;5046988;28;20204;-73
2022/09/18 07:39:52;;;;;;;0.35;0.35;;;11.40;99.90;12.90;96389.00;;;;5046441;28;25132;-73
2022/09/18 07:42:42;;;;;;;0.30;0.30;;;11.40;99.90;13.20;96404.00;;;;5039607;28;20239;-73
2022/09/18 07:45:31;;;;;;;0.57;0.50;;;11.50;99.90;13.40;96395.00;;;;5045190;28;20197;-73
2022/09/18 07:48:19;;;;;;;0.80;0.50;;;11.70;99.90;13.60;96385.00;;;;5050317;28;20203;-73
2022/09/18 07:51:08;;;;;;;5.40;0.40;;;11.80;99.90;13.90;96398.00;;;;5049131;28;20675;-73
2022/09/18 07:53:57;;;;;;;0.30;0.30;;;12.00;99.90;13.90;96400.00;;;;5046640;23;20233;-86
2022/09/18 07:56:46;;;;;;;0.60;0.40;;;12.20;99.90;14.10;96402.00;;;;5041683;28;20212;-86
2022/09/18 07:59:36;;;;;;;2.70;0.60;;;12.40;99.90;14.40;96402.00;;;;5030655;28;20194;-88
2022/09/18 08:02:25;;;;;;;0.30;0.30;;;12.60;99.90;14.60;96408.00;;;;5036192;28;20253;-87
2022/09/18 08:05:13;;;;;;;;;;;12.80;99.90;14.80;96399.00;;;;5039972;28;20198;-88
2022/09/18 08:08:04;;;;;;;0.30;0.30;;;13.00;99.90;15.00;96410.00;;;;5039111;28;20230;-87
2022/09/18 08:10:52;;;;;;;0.20;0.20;;;13.10;99.90;15.20;96403.00;;;;5042663;28;20294;-87
2022/09/18 08:13:41;;;;;;;0.30;0.30;;;13.30;99.90;15.30;96408.00;;;;5043249;28;20236;-86
2022/09/18 08:16:31;;;;;;;1.67;0.60;;;13.50;99.90;15.60;96421.00;;;;5036593;28;20206;-86
2022/09/18 08:19:19;;;;;;;;;;;13.70;99.90;15.80;96425.00;;;;5045964;28;20201;-86
2022/09/18 08:22:08;;;;;;;;;;;13.90;99.90;15.70;96407.00;;;;5033954;28;19960;-86
2022/09/18 08:24:57;;;;;;;0.60;0.40;;;14.10;99.90;15.00;96405.00;;;;5024831;28;20180;-85
2022/09/18 08:27:45;;;;;;;0.20;0.20;;;14.00;99.90;15.30;96406.00;;;;5035884;28;20352;-87
2022/09/18 08:30:34;;;;;;;;;;;14.10;99.90;16.10;96395.00;;;;5035950;28;20219;-87
2022/09/18 08:33:24;;;;;;;;;;;14.20;99.90;16.50;96382.00;;;;5033915;28;20453;-87
2022/09/18 08:36:13;;;;;;;;;;;14.40;99.90;16.10;96392.00;;;;5040526;28;19925;-86
2022/09/18 08:39:01;;;;;;;;;;;14.60;99.90;16.50;96387.00;;;;5037543;28;19933;-85
2022/09/18 08:42:16;;;;;;;;;;;14.80;99.90;16.80;96401.00;;;;5027463;28;19936;-87
2022/09/18 08:45:11;;;;;;;;;;;15.00;99.90;16.90;96389.00;;;;5032716;28;19941;-86
2022/09/18 08:48:04;;;;;;;;;;;15.20;98.70;16.20;96381.00;;;;5035690;28;20434;-87
2022/09/18 08:51:00;;;;;;;;;;;15.40;94.20;15.90;96373.00;;;;5010514;28;19932;-88
2022/09/18 08:53:54;;;;;;;;;;;15.10;93.10;15.70;96368.00;;;;5024396;28;20021;-85
2022/09/18 08:56:47;;;;;;;0.27;0.27;;;15.00;92.70;15.60;96375.00;;;;5029675;28;20483;-86
2022/09/18 08:59:42;;;;;;;0.40;0.30;;;15.00;90.60;16.10;96393.00;;;;5026989;28;20198;-87
2022/09/18 09:02:41;;;;;;;0.20;0.20;;;15.00;90.90;16.70;96385.00;;;;5022378;28;20264;-88
2022/09/18 09:05:40;;;;;;;0.40;0.40;;;15.20;92.00;16.90;96381.00;;;;5011698;28;20212;-86
2022/09/18 09:09:16;;;;;;;2.80;0.40;;;15.50;89.00;16.70;96372.00;;;;5026454;28;20236;-86
2022/09/18 09:12:19;;;;;;;0.30;0.30;;;15.50;89.70;16.90;96388.00;;;;5024280;28;20247;-86
2022/09/18 09:15:29;;;;;;;0.37;0.37;;;15.90;89.80;17.00;96375.00;;;;5017376;28;20434;-85
2022/09/18 09:18:23;;;;;;;0.60;0.50;;;15.90;85.90;16.40;96381.00;;;;5030837;28;20208;-86
2022/09/18 09:21:21;;;;;;;0.40;0.20;;;15.80;84.20;16.60;96398.00;;;;5022783;28;20913;-86
2022/09/18 09:24:28;;;;;;;0.30;0.30;;;15.80;87.00;16.90;96394.00;;;;5028935;28;20201;-87
2022/09/18 09:27:25;;;;;;;0.40;0.30;;;15.80;87.00;17.80;96398.00;;;;5031220;28;20205;-87
2022/09/18 09:30:17;;;;;;;0.40;0.40;;;16.20;89.20;18.60;96390.00;;;;5026676;28;20280;-86
2022/09/18 09:33:16;;;;;;;0.20;0.20;;;16.30;86.60;18.00;96401.00;;;;5028326;28;20233;-87
2022/09/18 09:36:11;;;;;;;0.67;0.27;;;16.60;80.30;17.00;96374.00;;;;5027493;28;20213;-86
2022/09/18 09:39:12;;;;;;;0.20;0.20;;;16.50;80.80;16.50;96392.00;;;;5019246;28;20774;-88
2022/09/18 09:42:07;;;;;;;0.20;0.20;;;16.20;81.00;18.00;96424.00;;;;5031720;28;20247;-87
2022/09/18 09:45:08;;;;;;;0.30;0.30;;;16.20;80.80;17.10;96394.00;;;;5028196;28;20202;-86
2022/09/18 09:48:07;;;;;;;1.20;0.27;;;16.40;78.20;17.40;96423.00;;;;5028531;28;20208;-85
2022/09/18 09:51:05;;;;;;;0.60;0.30;;;16.30;80.50;17.60;96418.00;;;;5023270;28;20237;-83
2022/09/18 09:53:54;;;;;;;0.20;0.20;;;16.50;78.80;18.70;96385.00;;;;5013770;28;20222;-88
2022/09/18 09:56:54;;;;;;;0.20;0.20;;;16.70;78.70;19.10;96370.00;;;;5029805;28;20267;-88
2022/09/18 09:59:54;;;;;;;0.30;0.30;;;17.10;82.70;19.70;96384.00;;;;5019105;28;20201;-85
2022/09/18 10:03:17;;;;;;;0.20;0.20;;;17.50;81.20;19.90;96380.00;;;;5033192;28;20268;-87
2022/09/18 10:06:16;;;;;;;0.60;0.40;;;18.10;80.70;20.50;96386.00;;;;5028523;28;20197;-87
2022/09/18 10:09:14;;;;;;;0.40;0.30;;;18.40;79.70;20.80;96386.00;;;;5038268;28;20193;-86
2022/09/18 10:12:17;;;;;;;0.30;0.20;;;18.80;79.00;20.10;96431.00;;;;5027423;28;20229;-87
2022/09/18 10:15:18;;;;;;;0.40;0.10;;;18.80;74.40;18.70;96384.00;;;;5021341;28;20259;-87
2022/09/18 10:18:15;;;;;;;0.20;0.20;;;18.60;68.90;18.10;96405.00;;;;5029221;28;20298;-83
2022/09/18 10:21:10;;;;;;;1.07;0.30;;;18.30;69.60;18.40;96416.00;;;;5020919;28;20210;-86
2022/09/18 10:24:09;;;;;;;1.03;0.30;;;17.70;71.50;20.10;96374.00;;;;5028539;28;20193;-87
2022/09/18 10:27:02;;;;;;;0.93;0.30;;;16.40;72.00;20.40;96415.00;;;;5032325;28;20205;-87
2022/09/18 10:29:53;;;;;;;0.20;0.20;;;18.20;75.00;19.70;96423.00;;;;5022082;28;20206;-85
2022/09/18 10:32:43;;;;;;;0.83;0.40;;;18.40;70.10;19.60;96361.00;;;;5026916;28;20202;-85
2022/09/18 10:35:43;;;;;;;0.20;0.20;;;21.20;70.30;18.50;96410.00;;;;5028173;28;20225;-88
2022/09/18 10:38:36;;;;;;;0.30;0.20;;;18.30;66.80;18.50;96391.00;;;;5013810;28;20262;-87
2022/09/18 10:41:41;;;;;;;0.40;0.20;;;17.90;67.70;18.50;96333.00;;;;5018739;28;20229;-87
2022/09/18 10:44:34;;;;;;;0.67;0.30;;;17.80;66.30;18.60;96383.00;;;;5023120;28;20230;-86
2022/09/18 10:47:26;;;;;;;0.20;0.20;;;17.80;66.40;19.00;96333.00;;;;5028765;28;20222;-87
2022/09/18 10:50:19;;;;;;;3.70;0.30;;;17.90;67.70;20.30;96347.00;;;;5024761;28;20619;-87
2022/09/18 10:53:29;;;;;;;0.20;0.10;;;18.10;68.80;20.80;96379.00;;;;5028798;28;20217;-86
2022/09/18 10:56:20;;;;;;;0.40;0.23;;;18.70;65.70;19.10;96417.00;;;;5029059;28;20568;-87
2022/09/18 10:59:33;;;;;;;0.40;0.23;;;18.50;64.20;19.70;96419.00;;;;5029089;28;20212;-87
2022/09/18 11:02:26;;;;;;;0.30;0.20;;;18.50;62.30;20.20;96418.00;;;;5028755;28;20224;-87
2022/09/18 11:05:20;;;;;;;0.30;0.20;;;18.50;65.40;20.70;96415.00;;;;5027585;28;20205;-86
2022/09/18 11:08:18;;;;;;;0.30;0.30;;;18.60;64.90;19.50;96408.00;;;;5035843;28;20259;-86
2022/09/18 11:11:11;;;;;;;0.20;0.20;;;18.50;62.70;19.50;96387.00;;;;5035644;28;20225;-86
2022/09/18 11:14:02;;;;;;;0.20;0.10;;;18.50;65.40;19.60;96421.00;;;;5032158;28;20222;-87
2022/09/18 11:16:56;;;;;;;0.20;0.10;;;18.50;66.20;20.10;96422.00;;;;5037399;28;20702;-86
2022/09/18 11:19:52;;;;;;;0.20;0.20;;;18.40;65.30;20.60;96421.00;;;;5036639;28;20225;-86
2022/09/18 11:22:44;;;;;;;0.33;0.30;;;18.60;68.30;22.20;96372.00;;;;5022925;28;20217;-86
2022/09/18 11:25:33;;;;;;;0.30;0.20;;;19.20;69.50;21.00;96341.00;;;;5032072;28;20677;-87
2022/09/18 11:28:27;;;;;;;0.37;0.30;;;19.60;62.60;19.80;96348.00;;;;5029694;28;20258;-87
2022/09/18 11:31:19;;;;;;;0.20;0.20;;;19.30;61.20;20.70;96355.00;;;;5029955;28;20221;-86
2022/09/18 11:34:24;;;;;;;1.60;0.20;;;19.40;62.40;22.70;96346.00;;;;5029701;28;20217;-87
2022/09/18 11:37:28;;;;;;;0.20;0.10;;;19.90;65.90;21.40;96333.00;;;;5032909;28;20202;-85
2022/09/18 11:40:23;;;;;;;0.20;0.20;;;20.40;60.70;20.90;96419.00;;;;5029250;28;20294;-88
2022/09/18 11:43:17;;;;;;;0.30;0.10;;;20.30;58.50;20.50;96345.00;;;;5032241;28;20205;-87
2022/09/18 11:46:19;;;;;;;0.73;0.20;;;19.90;57.20;23.30;96344.00;;;;5023193;28;20664;-87
2022/09/18 11:49:12;;;;;;;0.37;0.37;;;20.40;60.10;22.70;96411.00;;;;5024477;28;20193;-87
2022/09/18 11:52:05;;;;;;;0.67;0.17;;;21.00;58.50;22.90;96374.00;;;;5034994;28;20279;-87
2022/09/18 11:54:59;;;;;;;0.30;0.20;;;21.30;57.50;21.50;96349.00;;;;5024960;28;20217;-86
2022/09/18 11:57:55;;;;;;;2.10;0.23;;;20.00;56.60;22.10;96389.00;;;;5034228;28;20197;-86
2022/09/18 12:00:49;;;;;;;0.83;0.20;;;21.00;56.50;21.40;96327.00;;;;5026789;28;20217;-86
2022/09/18 12:03:44;;;;;;;0.20;0.10;;;20.70;56.30;24.20;96343.00;;;;5034732;28;20197;-87
2022/09/18 12:06:43;;;;;;;0.30;0.20;;;21.20;59.60;25.60;96337.00;;;;5027437;28;20779;-87
2022/09/18 12:09:42;;;;;;;0.28;0.20;;;22.60;57.10;26.10;96332.00;;;;5016956;28;20444;-89
2022/09/18 12:12:39;;;;;;;0.20;0.20;;;22.90;58.10;24.70;96333.00;;;;5020486;28;20225;-87
2022/09/18 12:15:35;;;;;;;0.30;0.10;;;23.20;52.30;24.00;96338.00;;;;5034011;28;20576;-88
2022/09/18 12:18:32;;;;;;;1.50;0.10;;;23.10;51.30;26.30;96386.00;;;;5031119;28;20207;-88
2022/09/18 12:21:45;;;;;;;0.20;0.10;;;23.50;55.90;24.20;96420.00;;;;5035081;28;20790;-87
2022/09/18 12:24:35;;;;;;;1.80;0.30;;;23.40;52.80;24.70;96425.00;;;;5020346;28;20223;-86
2022/09/18 12:27:32;;;;;;;0.30;0.10;;;23.40;53.10;23.30;96422.00;;;;5027872;28;20269;-88
2022/09/18 12:30:33;;;;;;;0.20;0.20;;;23.10;53.00;21.20;96380.00;;;;5011782;28;20207;-88
2022/09/18 12:33:34;;;;;;;0.43;0.20;;;22.10;52.30;22.60;96334.00;;;;5028552;28;20197;-87
2022/09/18 12:36:43;;;;;;;0.20;0.10;;;21.80;53.10;22.80;96417.00;;;;5020194;28;20936;-92
2022/09/18 12:39:59;;;;;;;0.20;0.10;;;21.80;53.00;22.00;96430.00;;;;5015643;28;20201;-87
2022/09/18 12:43:04;;;;;;;0.30;0.20;;;21.30;52.80;23.40;96401.00;;;;5020079;28;20202;-87
2022/09/18 12:46:28;;;;;;;0.20;0.10;;;23.30;55.80;21.50;96428.00;;;;5022501;28;20291;-86
2022/09/18 12:49:36;;;;;;;0.40;0.40;;;21.10;53.10;21.10;96436.00;;;;5032658;28;20280;-87
2022/09/18 12:52:40;;;;;;;0.20;0.17;;;20.60;55.10;20.90;96446.00;;;;5032245;28;20781;-87
2022/09/18 12:56:12;;;;;;;0.30;0.13;;;20.20;54.30;21.50;96387.00;;;;5022655;28;20237;-86
2022/09/18 12:59:33;;;;;;;0.20;0.13;;;20.00;56.90;23.40;96426.00;;;;5019112;28;20217;-88
2022/09/18 13:02:45;;;;;;;0.20;0.10;;;20.50;57.40;23.40;96449.00;;;;5024177;28;20700;-87
2022/09/18 13:05:42;;;;;;;0.20;0.10;;;21.00;57.20;22.10;96432.00;;;;5022277;28;20230;-87
2022/09/18 13:08:39;;;;;;;0.20;0.10;;;20.80;55.20;23.90;96368.00;;;;5025840;28;20696;-87
2022/09/18 13:11:35;;;;;;;0.20;0.10;;;21.20;55.80;25.40;96453.00;;;;5021994;28;20213;-89
2022/09/18 13:14:31;;;;;;;0.20;0.17;;;22.00;56.20;25.40;96439.00;;;;5029567;28;20190;-87
2022/09/18 13:17:28;;;;;;;0.60;0.40;;;22.50;56.10;24.40;96436.00;;;;5029948;28;20205;-88
2022/09/18 13:20:25;;;;;;;0.20;0.10;;;22.60;54.20;20.70;96365.00;;;;5035334;28;20209;-88
2022/09/18 13:23:20;;;;;;;0.20;0.10;;;22.10;51.60;21.20;96459.00;;;;5020955;28;20209;-86